sensor_id;sensor_type;location;lat;lon;timestamp;pressure;altitude;pressure_sealevel;temperature;humidity
59608;BME280;45426;44.726;10.390;2023-02-10T00:00:09;102667.53;;;-3.53;100.00
59608;BME280;45426;44.726;10.390;2023-02-10T00:02:35;102675.75;;;-3.33;100.00
59608;BME280;45426;44.726;10.390;2023-02-10T00:05:00;102664.47;;;-3.20;100.00
59608;BME280;45426;44.726;10.390;2023-02-10T00:07:25;102656.28;;;-2.89;100.00
59608;BME280;45426;44.726;10.390;2023-02-10T00:09:51;102660.44;;;-3.16;100.00
59608;BME280;45426;44.726;10.390;2023-02-10T00:12:16;102657.97;;;-3.03;100.00
59608;BME280;45426;44.726;10.390;2023-02-10T00:14:42;102650.38;;;-3.36;100.00
59608;BME280;45426;44.726;10.390;2023-02-10T00:17:07;102653.69;;;-3.34;100.00
59608;BME280;45426;44.726;10.390;2023-02-10T00:19:33;102655.16;;;-3.31;100.00
59608;BME280;45426;44.726;10.390;2023-02-10T00:21:59;102652.22;;;-3.36;100.00
59608;BME280;45426;44.726;10.390;2023-02-10T00:24:25;102656.94;;;-3.02;100.00
59608;BME280;45426;44.726;10.390;2023-02-10T00:26:51;102646.91;;;-3.21;100.00
59608;BME280;45426;44.726;10.390;2023-02-10T00:29:17;102646.38;;;-2.95;100.00
59608;BME280;45426;44.726;10.390;2023-02-10T00:31:43;102650.81;;;-3.17;100.00
59608;BME280;45426;44.726;10.390;2023-02-10T00:34:11;102650.28;;;-3.27;100.00
59608;BME280;45426;44.726;10.390;2023-02-10T00:36:36;102656.25;;;-3.25;100.00
59608;BME280;45426;44.726;10.390;2023-02-10T00:39:02;102650.03;;;-3.33;100.00
59608;BME280;45426;44.726;10.390;2023-02-10T00:41:27;102645.69;;;-2.67;100.00
59608;BME280;45426;44.726;10.390;2023-02-10T00:43:53;102649.09;;;-2.88;100.00
59608;BME280;45426;44.726;10.390;2023-02-10T00:46:19;102647.72;;;-2.84;100.00
59608;BME280;45426;44.726;10.390;2023-02-10T00:48:45;102640.41;;;-2.82;100.00
59608;BME280;45426;44.726;10.390;2023-02-10T00:51:12;102643.88;;;-2.60;100.00
59608;BME280;45426;44.726;10.390;2023-02-10T00:53:37;102637.28;;;-2.86;100.00
59608;BME280;45426;44.726;10.390;2023-02-10T00:56:03;102634.06;;;-2.81;100.00
59608;BME280;45426;44.726;10.390;2023-02-10T00:58:29;102632.91;;;-2.94;100.00
59608;BME280;45426;44.726;10.390;2023-02-10T01:00:55;102635.31;;;-2.99;100.00
59608;BME280;45426;44.726;10.390;2023-02-10T01:03:21;102633.19;;;-3.03;100.00
59608;BME280;45426;44.726;10.390;2023-02-10T01:05:47;102624.31;;;-2.74;100.00
59608;BME280;45426;44.726;10.390;2023-02-10T01:08:13;102617.59;;;-2.48;100.00
59608;BME280;45426;44.726;10.390;2023-02-10T01:10:39;102624.44;;;-2.61;100.00
59608;BME280;45426;44.726;10.390;2023-02-10T01:13:07;102609.72;;;-2.57;100.00
59608;BME280;45426;44.726;10.390;2023-02-10T01:15:32;102622.28;;;-2.50;100.00
59608;BME280;45426;44.726;10.390;2023-02-10T01:17:58;102621.00;;;-2.76;100.00
59608;BME280;45426;44.726;10.390;2023-02-10T01:20:24;102617.22;;;-2.67;100.00
59608;BME280;45426;44.726;10.390;2023-02-10T01:22:50;102609.75;;;-2.78;100.00
59608;BME280;45426;44.726;10.390;2023-02-10T01:25:16;102616.47;;;-2.82;100.00
59608;BME280;45426;44.726;10.390;2023-02-10T01:27:41;102614.44;;;-2.80;100.00
59608;BME280;45426;44.726;10.390;2023-02-10T01:30:07;102607.69;;;-2.98;100.00
59608;BME280;45426;44.726;10.390;2023-02-10T01:32:32;102607.81;;;-2.84;100.00
59608;BME280;45426;44.726;10.390;2023-02-10T01:34:58;102616.25;;;-2.81;100.00
59608;BME280;45426;44.726;10.390;2023-02-10T01:37:23;102613.34;;;-2.64;100.00
59608;BME280;45426;44.726;10.390;2023-02-10T01:39:49;102618.84;;;-2.87;100.00
59608;BME280;45426;44.726;10.390;2023-02-10T01:42:15;102611.97;;;-2.10;100.00
59608;BME280;45426;44.726;10.390;2023-02-10T01:47:07;102614.31;;;-2.50;100.00
59608;BME280;45426;44.726;10.390;2023-02-10T01:49:35;102613.94;;;-2.69;100.00
59608;BME280;45426;44.726;10.390;2023-02-10T01:52:13;102606.00;;;-2.84;100.00
59608;BME280;45426;44.726;10.390;2023-02-10T01:57:07;102603.19;;;-3.78;100.00
59608;BME280;45426;44.726;10.390;2023-02-10T01:59:35;102604.56;;;-3.97;100.00
59608;BME280;45426;44.726;10.390;2023-02-10T02:02:01;102612.06;;;-3.86;100.00
59608;BME280;45426;44.726;10.390;2023-02-10T02:04:48;102610.16;;;-3.77;100.00
59608;BME280;45426;44.726;10.390;2023-02-10T02:07:15;102602.66;;;-3.88;100.00
59608;BME280;45426;44.726;10.390;2023-02-10T02:09:41;102601.28;;;-3.69;100.00
59608;BME280;45426;44.726;10.390;2023-02-10T02:12:37;102599.44;;;-3.54;100.00
59608;BME280;45426;44.726;10.390;2023-02-10T02:15:34;102602.34;;;-3.19;100.00
59608;BME280;45426;44.726;10.390;2023-02-10T02:20:41;102597.91;;;-3.12;100.00
59608;BME280;45426;44.726;10.390;2023-02-10T02:26:22;102595.13;;;-3.40;100.00
59608;BME280;45426;44.726;10.390;2023-02-10T02:37:19;102575.13;;;-3.00;100.00
59608;BME280;45426;44.726;10.390;2023-02-10T02:39:49;102568.00;;;-2.99;100.00
59608;BME280;45426;44.726;10.390;2023-02-10T02:44:44;102564.94;;;-3.18;100.00
59608;BME280;45426;44.726;10.390;2023-02-10T02:49:49;102555.50;;;-2.99;100.00
59608;BME280;45426;44.726;10.390;2023-02-10T02:57:53;102553.09;;;-3.15;100.00
59608;BME280;45426;44.726;10.390;2023-02-10T03:00:26;102560.91;;;-3.28;100.00
59608;BME280;45426;44.726;10.390;2023-02-10T03:02:53;102555.75;;;-3.52;100.00
59608;BME280;45426;44.726;10.390;2023-02-10T03:05:20;102558.09;;;-3.42;100.00
59608;BME280;45426;44.726;10.390;2023-02-10T03:07:47;102558.81;;;-3.48;100.00
59608;BME280;45426;44.726;10.390;2023-02-10T03:10:12;102545.47;;;-3.55;100.00
59608;BME280;45426;44.726;10.390;2023-02-10T03:12:38;102542.00;;;-3.55;100.00
59608;BME280;45426;44.726;10.390;2023-02-10T03:15:03;102540.00;;;-3.68;100.00
59608;BME280;45426;44.726;10.390;2023-02-10T03:17:29;102539.59;;;-3.65;100.00
59608;BME280;45426;44.726;10.390;2023-02-10T03:19:54;102545.78;;;-3.64;100.00
59608;BME280;45426;44.726;10.390;2023-02-10T03:22:20;102549.28;;;-3.42;100.00
59608;BME280;45426;44.726;10.390;2023-02-10T03:24:45;102542.81;;;-3.18;100.00
59608;BME280;45426;44.726;10.390;2023-02-10T03:27:10;102542.19;;;-3.20;100.00
59608;BME280;45426;44.726;10.390;2023-02-10T03:29:36;102543.25;;;-3.36;100.00
59608;BME280;45426;44.726;10.390;2023-02-10T03:32:01;102551.41;;;-3.38;100.00
59608;BME280;45426;44.726;10.390;2023-02-10T03:34:28;102551.41;;;-3.38;100.00
59608;BME280;45426;44.726;10.390;2023-02-10T03:36:54;102545.19;;;-3.45;100.00
59608;BME280;45426;44.726;10.390;2023-02-10T03:39:19;102549.59;;;-3.52;100.00
59608;BME280;45426;44.726;10.390;2023-02-10T03:41:45;102547.50;;;-3.57;100.00
59608;BME280;45426;44.726;10.390;2023-02-10T03:44:10;102540.97;;;-3.54;100.00
59608;BME280;45426;44.726;10.390;2023-02-10T03:46:35;102539.09;;;-3.39;100.00
59608;BME280;45426;44.726;10.390;2023-02-10T03:49:03;102542.19;;;-3.20;100.00
59608;BME280;45426;44.726;10.390;2023-02-10T03:51:28;102547.56;;;-3.50;100.00
59608;BME280;45426;44.726;10.390;2023-02-10T03:53:54;102547.97;;;-3.32;100.00
59608;BME280;45426;44.726;10.390;2023-02-10T03:56:19;102554.28;;;-3.18;100.00
59608;BME280;45426;44.726;10.390;2023-02-10T03:58:45;102553.56;;;-3.26;100.00
59608;BME280;45426;44.726;10.390;2023-02-10T04:01:15;102548.97;;;-3.18;100.00
59608;BME280;45426;44.726;10.390;2023-02-10T04:03:41;102555.69;;;-3.37;100.00
59608;BME280;45426;44.726;10.390;2023-02-10T04:06:08;102553.31;;;-3.32;100.00
59608;BME280;45426;44.726;10.390;2023-02-10T04:08:34;102557.59;;;-3.16;100.00
59608;BME280;45426;44.726;10.390;2023-02-10T04:10:59;102553.88;;;-3.36;100.00
59608;BME280;45426;44.726;10.390;2023-02-10T04:13:24;102567.28;;;-3.59;100.00
59608;BME280;45426;44.726;10.390;2023-02-10T04:16:00;102564.25;;;-3.71;100.00
59608;BME280;45426;44.726;10.390;2023-02-10T04:18:25;102564.38;;;-3.64;100.00
59608;BME280;45426;44.726;10.390;2023-02-10T04:20:51;102565.00;;;-3.62;100.00
59608;BME280;45426;44.726;10.390;2023-02-10T04:23:16;102568.28;;;-3.60;100.00
59608;BME280;45426;44.726;10.390;2023-02-10T04:25:41;102561.22;;;-3.38;100.00
59608;BME280;45426;44.726;10.390;2023-02-10T04:28:07;102558.75;;;-3.40;100.00
59608;BME280;45426;44.726;10.390;2023-02-10T04:30:32;102552.88;;;-3.50;100.00
59608;BME280;45426;44.726;10.390;2023-02-10T04:32:58;102552.81;;;-3.72;100.00
59608;BME280;45426;44.726;10.390;2023-02-10T04:35:24;102557.78;;;-3.83;100.00
59608;BME280;45426;44.726;10.390;2023-02-10T04:37:49;102554.09;;;-3.97;100.00
59608;BME280;45426;44.726;10.390;2023-02-10T04:40:15;102550.81;;;-3.69;100.00
59608;BME280;45426;44.726;10.390;2023-02-10T04:42:40;102563.28;;;-3.85;100.00
59608;BME280;45426;44.726;10.390;2023-02-10T04:45:06;102553.16;;;-3.60;100.00
59608;BME280;45426;44.726;10.390;2023-02-10T04:47:32;102557.38;;;-3.51;100.00
59608;BME280;45426;44.726;10.390;2023-02-10T04:49:57;102563.50;;;-3.50;100.00
59608;BME280;45426;44.726;10.390;2023-02-10T04:52:22;102564.06;;;-3.40;100.00
59608;BME280;45426;44.726;10.390;2023-02-10T04:54:48;102561.31;;;-3.46;100.00
59608;BME280;45426;44.726;10.390;2023-02-10T04:57:13;102557.50;;;-3.74;100.00
59608;BME280;45426;44.726;10.390;2023-02-10T04:59:39;102567.19;;;-3.51;100.00
59608;BME280;45426;44.726;10.390;2023-02-10T05:02:04;102567.72;;;-3.41;100.00
59608;BME280;45426;44.726;10.390;2023-02-10T05:04:30;102571.41;;;-3.42;100.00
59608;BME280;45426;44.726;10.390;2023-02-10T05:06:55;102572.22;;;-3.56;100.00
59608;BME280;45426;44.726;10.390;2023-02-10T05:09:24;102576.44;;;-3.47;100.00
59608;BME280;45426;44.726;10.390;2023-02-10T05:11:49;102570.28;;;-3.33;100.00
59608;BME280;45426;44.726;10.390;2023-02-10T05:14:15;102562.16;;;-3.46;100.00
59608;BME280;45426;44.726;10.390;2023-02-10T05:16:40;102566.44;;;-3.45;100.00
59608;BME280;45426;44.726;10.390;2023-02-10T05:19:06;102555.94;;;-3.53;100.00
59608;BME280;45426;44.726;10.390;2023-02-10T05:21:31;102559.50;;;-3.46;100.00
59608;BME280;45426;44.726;10.390;2023-02-10T05:23:58;102560.41;;;-3.54;100.00
59608;BME280;45426;44.726;10.390;2023-02-10T05:26:23;102554.91;;;-3.52;100.00
59608;BME280;45426;44.726;10.390;2023-02-10T05:28:48;102551.28;;;-3.29;100.00
59608;BME280;45426;44.726;10.390;2023-02-10T05:31:14;102552.41;;;-3.54;100.00
59608;BME280;45426;44.726;10.390;2023-02-10T05:33:39;102559.41;;;-3.67;100.00
59608;BME280;45426;44.726;10.390;2023-02-10T05:36:05;102563.25;;;-3.40;100.00
59608;BME280;45426;44.726;10.390;2023-02-10T05:38:30;102552.03;;;-3.36;100.00
59608;BME280;45426;44.726;10.390;2023-02-10T05:40:56;102551.78;;;-3.56;100.00
59608;BME280;45426;44.726;10.390;2023-02-10T05:43:21;102546.59;;;-3.27;100.00
59608;BME280;45426;44.726;10.390;2023-02-10T05:45:47;102553.66;;;-3.20;100.00
59608;BME280;45426;44.726;10.390;2023-02-10T05:48:12;102561.97;;;-3.08;100.00
59608;BME280;45426;44.726;10.390;2023-02-10T05:50:38;102556.25;;;-3.05;100.00
59608;BME280;45426;44.726;10.390;2023-02-10T05:53:05;102558.34;;;-3.37;100.00
59608;BME280;45426;44.726;10.390;2023-02-10T05:55:31;102561.06;;;-3.52;100.00
59608;BME280;45426;44.726;10.390;2023-02-10T05:57:56;102573.19;;;-3.27;100.00
59608;BME280;45426;44.726;10.390;2023-02-10T06:00:22;102572.19;;;-3.26;100.00
59608;BME280;45426;44.726;10.390;2023-02-10T06:02:48;102576.84;;;-2.92;100.00
59608;BME280;45426;44.726;10.390;2023-02-10T06:05:14;102576.66;;;-3.12;100.00
59608;BME280;45426;44.726;10.390;2023-02-10T06:07:40;102580.31;;;-3.13;100.00
59608;BME280;45426;44.726;10.390;2023-02-10T06:10:06;102582.78;;;-3.12;100.00
59608;BME280;45426;44.726;10.390;2023-02-10T06:12:32;102585.47;;;-3.26;100.00
59608;BME280;45426;44.726;10.390;2023-02-10T06:14:57;102591.16;;;-3.44;100.00
59608;BME280;45426;44.726;10.390;2023-02-10T06:17:22;102597.06;;;-3.49;100.00
59608;BME280;45426;44.726;10.390;2023-02-10T06:19:48;102589.38;;;-3.59;100.00
59608;BME280;45426;44.726;10.390;2023-02-10T06:22:14;102599.91;;;-3.80;100.00
59608;BME280;45426;44.726;10.390;2023-02-10T06:24:39;102600.28;;;-3.98;100.00
59608;BME280;45426;44.726;10.390;2023-02-10T06:27:06;102612.59;;;-4.20;100.00
59608;BME280;45426;44.726;10.390;2023-02-10T06:29:32;102611.94;;;-4.22;100.00
59608;BME280;45426;44.726;10.390;2023-02-10T06:31:57;102613.38;;;-4.35;100.00
59608;BME280;45426;44.726;10.390;2023-02-10T06:34:22;102620.13;;;-4.32;100.00
59608;BME280;45426;44.726;10.390;2023-02-10T06:36:48;102619.00;;;-4.15;100.00
59608;BME280;45426;44.726;10.390;2023-02-10T06:39:13;102621.13;;;-3.95;100.00
59608;BME280;45426;44.726;10.390;2023-02-10T06:41:39;102622.31;;;-3.98;100.00
59608;BME280;45426;44.726;10.390;2023-02-10T06:44:04;102624.84;;;-3.66;100.00
59608;BME280;45426;44.726;10.390;2023-02-10T06:46:30;102621.97;;;-3.35;100.00
59608;BME280;45426;44.726;10.390;2023-02-10T06:48:56;102624.13;;;-2.72;100.00
59608;BME280;45426;44.726;10.390;2023-02-10T06:51:21;102621.00;;;-2.55;100.00
59608;BME280;45426;44.726;10.390;2023-02-10T06:53:47;102630.31;;;-2.22;100.00
59608;BME280;45426;44.726;10.390;2023-02-10T06:56:13;102624.56;;;-2.26;100.00
59608;BME280;45426;44.726;10.390;2023-02-10T06:58:38;102622.06;;;-0.68;100.00
59608;BME280;45426;44.726;10.390;2023-02-10T07:01:09;102627.47;;;0.77;100.00
59608;BME280;45426;44.726;10.390;2023-02-10T07:03:35;102617.00;;;1.71;100.00
59608;BME280;45426;44.726;10.390;2023-02-10T07:06:00;102624.72;;;1.61;100.00
59608;BME280;45426;44.726;10.390;2023-02-10T07:08:26;102623.63;;;2.38;100.00
59608;BME280;45426;44.726;10.390;2023-02-10T07:10:51;102626.00;;;4.90;100.00
59608;BME280;45426;44.726;10.390;2023-02-10T07:13:17;102624.47;;;6.41;100.00
59608;BME280;45426;44.726;10.390;2023-02-10T07:15:42;102636.44;;;7.49;100.00
59608;BME280;45426;44.726;10.390;2023-02-10T07:18:07;102641.56;;;5.45;100.00
59608;BME280;45426;44.726;10.390;2023-02-10T07:20:33;102651.38;;;2.62;100.00
59608;BME280;45426;44.726;10.390;2023-02-10T07:22:59;102645.66;;;1.96;100.00
59608;BME280;45426;44.726;10.390;2023-02-10T07:25:25;102657.09;;;1.21;100.00
59608;BME280;45426;44.726;10.390;2023-02-10T07:27:50;102647.19;;;1.28;100.00
59608;BME280;45426;44.726;10.390;2023-02-10T07:30:15;102653.34;;;2.55;100.00
59608;BME280;45426;44.726;10.390;2023-02-10T07:32:41;102655.69;;;3.18;100.00
59608;BME280;45426;44.726;10.390;2023-02-10T07:35:08;102639.47;;;3.91;100.00
59608;BME280;45426;44.726;10.390;2023-02-10T07:37:34;102642.19;;;5.19;100.00
59608;BME280;45426;44.726;10.390;2023-02-10T07:40:00;102655.84;;;2.31;100.00
59608;BME280;45426;44.726;10.390;2023-02-10T07:42:25;102659.00;;;3.98;100.00
59608;BME280;45426;44.726;10.390;2023-02-10T07:44:50;102659.66;;;3.69;100.00
59608;BME280;45426;44.726;10.390;2023-02-10T07:47:16;102672.13;;;2.55;100.00
59608;BME280;45426;44.726;10.390;2023-02-10T07:49:42;102677.84;;;2.95;100.00
59608;BME280;45426;44.726;10.390;2023-02-10T07:52:07;102675.66;;;2.30;100.00
59608;BME280;45426;44.726;10.390;2023-02-10T07:54:33;102683.59;;;2.99;100.00
59608;BME280;45426;44.726;10.390;2023-02-10T07:56:59;102687.09;;;2.99;100.00
59608;BME280;45426;44.726;10.390;2023-02-10T07:59:24;102680.00;;;3.65;100.00
59608;BME280;45426;44.726;10.390;2023-02-10T08:01:49;102690.72;;;3.23;100.00
59608;BME280;45426;44.726;10.390;2023-02-10T08:04:15;102692.84;;;4.53;100.00
59608;BME280;45426;44.726;10.390;2023-02-10T08:06:40;102692.72;;;6.20;100.00
59608;BME280;45426;44.726;10.390;2023-02-10T08:09:06;102693.84;;;5.90;100.00
59608;BME280;45426;44.726;10.390;2023-02-10T08:11:32;102696.63;;;6.29;100.00
59608;BME280;45426;44.726;10.390;2023-02-10T08:13:58;102690.16;;;6.91;100.00
59608;BME280;45426;44.726;10.390;2023-02-10T08:16:25;102699.81;;;6.26;100.00
59608;BME280;45426;44.726;10.390;2023-02-10T08:18:50;102702.41;;;5.87;100.00
59608;BME280;45426;44.726;10.390;2023-02-10T08:21:16;102701.78;;;6.31;100.00
59608;BME280;45426;44.726;10.390;2023-02-10T08:23:41;102702.06;;;4.45;100.00
59608;BME280;45426;44.726;10.390;2023-02-10T08:26:10;102702.41;;;6.99;100.00
59608;BME280;45426;44.726;10.390;2023-02-10T08:28:37;102703.22;;;8.13;100.00
59608;BME280;45426;44.726;10.390;2023-02-10T08:31:04;102708.53;;;8.35;100.00
59608;BME280;45426;44.726;10.390;2023-02-10T08:33:30;102691.31;;;13.18;100.00
59608;BME280;45426;44.726;10.390;2023-02-10T08:36:06;102698.91;;;12.35;100.00
59608;BME280;45426;44.726;10.390;2023-02-10T08:38:31;102702.28;;;9.77;100.00
59608;BME280;45426;44.726;10.390;2023-02-10T08:40:57;102705.59;;;12.19;100.00
59608;BME280;45426;44.726;10.390;2023-02-10T08:43:23;102710.56;;;11.38;100.00
59608;BME280;45426;44.726;10.390;2023-02-10T08:45:49;102712.78;;;10.76;100.00
59608;BME280;45426;44.726;10.390;2023-02-10T08:48:14;102711.28;;;12.52;100.00
59608;BME280;45426;44.726;10.390;2023-02-10T08:50:40;102708.44;;;13.24;100.00
59608;BME280;45426;44.726;10.390;2023-02-10T08:53:05;102728.88;;;11.22;100.00
59608;BME280;45426;44.726;10.390;2023-02-10T08:55:31;102729.13;;;12.87;100.00
59608;BME280;45426;44.726;10.390;2023-02-10T08:57:56;102736.16;;;8.70;100.00
59608;BME280;45426;44.726;10.390;2023-02-10T09:00:22;102739.56;;;11.08;100.00
59608;BME280;45426;44.726;10.390;2023-02-10T09:02:50;102740.53;;;9.55;100.00
59608;BME280;45426;44.726;10.390;2023-02-10T09:05:16;102744.78;;;7.37;100.00
59608;BME280;45426;44.726;10.390;2023-02-10T09:07:44;102740.78;;;10.71;100.00
59608;BME280;45426;44.726;10.390;2023-02-10T09:10:10;102742.22;;;12.37;100.00
59608;BME280;45426;44.726;10.390;2023-02-10T09:12:38;102739.13;;;11.40;100.00
59608;BME280;45426;44.726;10.390;2023-02-10T09:15:04;102753.84;;;8.88;100.00
59608;BME280;45426;44.726;10.390;2023-02-10T09:17:29;102746.38;;;11.05;100.00
59608;BME280;45426;44.726;10.390;2023-02-10T09:19:55;102751.28;;;11.98;100.00
59608;BME280;45426;44.726;10.390;2023-02-10T09:22:20;102749.72;;;13.79;97.19
59608;BME280;45426;44.726;10.390;2023-02-10T09:24:46;102751.66;;;10.71;100.00
59608;BME280;45426;44.726;10.390;2023-02-10T09:27:14;102760.69;;;10.25;100.00
59608;BME280;45426;44.726;10.390;2023-02-10T09:29:40;102751.41;;;11.33;100.00
59608;BME280;45426;44.726;10.390;2023-02-10T09:32:05;102755.69;;;12.52;100.00
59608;BME280;45426;44.726;10.390;2023-02-10T09:34:31;102758.56;;;12.08;100.00
59608;BME280;45426;44.726;10.390;2023-02-10T09:36:57;102749.72;;;15.28;90.75
59608;BME280;45426;44.726;10.390;2023-02-10T09:39:26;102744.72;;;14.20;81.83
59608;BME280;45426;44.726;10.390;2023-02-10T09:42:01;102752.41;;;13.47;81.05
59608;BME280;45426;44.726;10.390;2023-02-10T09:44:33;102748.91;;;17.47;69.92
59608;BME280;45426;44.726;10.390;2023-02-10T09:47:28;102759.91;;;14.72;69.48
59608;BME280;45426;44.726;10.390;2023-02-10T09:55:21;102751.31;;;18.01;61.14
59608;BME280;45426;44.726;10.390;2023-02-10T09:57:52;102754.78;;;18.36;57.01
59608;BME280;45426;44.726;10.390;2023-02-10T10:00:33;102764.84;;;16.70;52.41
59608;BME280;45426;44.726;10.390;2023-02-10T10:03:03;102761.63;;;16.05;55.35
59608;BME280;45426;44.726;10.390;2023-02-10T10:06:03;102750.34;;;17.97;50.91
59608;BME280;45426;44.726;10.390;2023-02-10T10:09:37;102755.63;;;19.05;53.98
59608;BME280;45426;44.726;10.390;2023-02-10T10:11:43;102757.53;;;19.55;49.86
59608;BME280;45426;44.726;10.390;2023-02-10T10:14:31;102760.47;;;19.50;47.20
59608;BME280;45426;44.726;10.390;2023-02-10T10:31:06;102775.25;;;10.86;100.00
59608;BME280;45426;44.726;10.390;2023-02-10T10:33:35;102772.44;;;12.11;87.62
59608;BME280;45426;44.726;10.390;2023-02-10T10:36:03;102766.06;;;11.87;90.49
59608;BME280;45426;44.726;10.390;2023-02-10T10:38:33;102761.75;;;10.29;100.00
59608;BME280;45426;44.726;10.390;2023-02-10T10:41:07;102762.78;;;10.75;100.00
59608;BME280;45426;44.726;10.390;2023-02-10T10:43:46;102762.00;;;9.82;100.00
59608;BME280;45426;44.726;10.390;2023-02-10T10:46:18;102754.66;;;9.72;100.00
59608;BME280;45426;44.726;10.390;2023-02-10T10:48:46;102761.13;;;9.56;100.00
59608;BME280;45426;44.726;10.390;2023-02-10T10:51:12;102748.72;;;9.96;100.00
59608;BME280;45426;44.726;10.390;2023-02-10T10:53:45;102750.63;;;10.10;100.00
59608;BME280;45426;44.726;10.390;2023-02-10T10:56:35;102742.16;;;9.56;100.00
59608;BME280;45426;44.726;10.390;2023-02-10T10:59:34;102739.66;;;9.33;100.00
59608;BME280;45426;44.726;10.390;2023-02-10T11:02:33;102725.88;;;9.76;100.00
59608;BME280;45426;44.726;10.390;2023-02-10T11:05:04;102731.31;;;9.61;100.00
59608;BME280;45426;44.726;10.390;2023-02-10T11:07:32;102728.59;;;10.17;100.00
59608;BME280;45426;44.726;10.390;2023-02-10T11:09:59;102732.44;;;9.80;100.00
59608;BME280;45426;44.726;10.390;2023-02-10T11:12:32;102731.53;;;9.39;100.00
59608;BME280;45426;44.726;10.390;2023-02-10T11:14:59;102724.81;;;9.72;100.00
59608;BME280;45426;44.726;10.390;2023-02-10T11:17:36;102723.16;;;9.61;100.00
59608;BME280;45426;44.726;10.390;2023-02-10T11:22:38;102721.84;;;10.25;100.00
59608;BME280;45426;44.726;10.390;2023-02-10T11:25:29;102719.34;;;9.51;100.00
59608;BME280;45426;44.726;10.390;2023-02-10T11:27:57;102718.84;;;9.75;100.00
59608;BME280;45426;44.726;10.390;2023-02-10T11:32:53;102716.13;;;8.76;100.00
59608;BME280;45426;44.726;10.390;2023-02-10T11:35:19;102712.84;;;9.52;100.00
59608;BME280;45426;44.726;10.390;2023-02-10T11:37:51;102709.97;;;8.96;100.00
59608;BME280;45426;44.726;10.390;2023-02-10T11:40:20;102707.66;;;8.62;100.00
59608;BME280;45426;44.726;10.390;2023-02-10T11:42:51;102697.09;;;9.39;100.00
59608;BME280;45426;44.726;10.390;2023-02-10T11:45:26;102700.94;;;9.79;100.00
59608;BME280;45426;44.726;10.390;2023-02-10T11:48:01;102700.63;;;9.70;100.00
59608;BME280;45426;44.726;10.390;2023-02-10T11:50:30;102693.06;;;9.83;100.00
59608;BME280;45426;44.726;10.390;2023-02-10T11:52:56;102687.88;;;9.76;100.00
59608;BME280;45426;44.726;10.390;2023-02-10T11:55:31;102683.53;;;10.21;100.00
59608;BME280;45426;44.726;10.390;2023-02-10T11:58:18;102684.59;;;9.38;100.00
59608;BME280;45426;44.726;10.390;2023-02-10T12:01:12;102677.84;;;9.87;100.00
59608;BME280;45426;44.726;10.390;2023-02-10T12:06:36;102676.78;;;9.67;100.00
59608;BME280;45426;44.726;10.390;2023-02-10T12:12:00;102670.91;;;8.87;100.00
59608;BME280;45426;44.726;10.390;2023-02-10T12:14:31;102664.53;;;9.49;100.00
59608;BME280;45426;44.726;10.390;2023-02-10T12:17:23;102669.28;;;8.91;100.00
59608;BME280;45426;44.726;10.390;2023-02-10T12:20:20;102663.97;;;9.42;100.00
59608;BME280;45426;44.726;10.390;2023-02-10T12:29:07;102656.94;;;9.67;100.00
59608;BME280;45426;44.726;10.390;2023-02-10T12:31:45;102651.78;;;9.81;100.00
59608;BME280;45426;44.726;10.390;2023-02-10T12:37:16;102637.69;;;9.74;100.00
59608;BME280;45426;44.726;10.390;2023-02-10T12:54:18;102619.75;;;9.26;100.00
59608;BME280;45426;44.726;10.390;2023-02-10T12:56:53;102614.06;;;9.84;100.00
59608;BME280;45426;44.726;10.390;2023-02-10T12:59:26;102602.31;;;10.15;100.00
59608;BME280;45426;44.726;10.390;2023-02-10T13:04:57;102603.22;;;9.64;100.00
59608;BME280;45426;44.726;10.390;2023-02-10T13:09:59;102608.66;;;9.48;100.00
59608;BME280;45426;44.726;10.390;2023-02-10T13:12:31;102601.03;;;9.66;100.00
59608;BME280;45426;44.726;10.390;2023-02-10T13:15:37;102592.38;;;9.64;100.00
59608;BME280;45426;44.726;10.390;2023-02-10T13:18:21;102596.63;;;10.11;100.00
59608;BME280;45426;44.726;10.390;2023-02-10T13:21:15;102597.75;;;9.12;100.00
59608;BME280;45426;44.726;10.390;2023-02-10T13:35:23;102602.69;;;9.26;100.00
59608;BME280;45426;44.726;10.390;2023-02-10T13:37:52;102585.25;;;9.88;100.00
59608;BME280;45426;44.726;10.390;2023-02-10T13:40:50;102597.50;;;9.50;100.00
59608;BME280;45426;44.726;10.390;2023-02-10T13:43:34;102587.19;;;9.57;100.00
59608;BME280;45426;44.726;10.390;2023-02-10T13:46:01;102591.81;;;9.41;100.00
59608;BME280;45426;44.726;10.390;2023-02-10T13:48:30;102587.47;;;9.61;100.00
59608;BME280;45426;44.726;10.390;2023-02-10T13:51:01;102585.28;;;9.68;100.00
59608;BME280;45426;44.726;10.390;2023-02-10T13:56:24;102582.59;;;9.32;100.00
59608;BME280;45426;44.726;10.390;2023-02-10T13:59:02;102578.81;;;9.28;100.00
59608;BME280;45426;44.726;10.390;2023-02-10T14:04:04;102578.78;;;9.38;100.00
59608;BME280;45426;44.726;10.390;2023-02-10T14:06:35;102578.53;;;9.19;100.00
59608;BME280;45426;44.726;10.390;2023-02-10T14:12:00;102569.84;;;9.17;100.00
59608;BME280;45426;44.726;10.390;2023-02-10T14:14:37;102575.00;;;9.29;100.00
59608;BME280;45426;44.726;10.390;2023-02-10T14:19:39;102574.41;;;8.91;100.00
59608;BME280;45426;44.726;10.390;2023-02-10T14:22:06;102574.91;;;8.62;100.00
59608;BME280;45426;44.726;10.390;2023-02-10T14:24:36;102567.63;;;8.88;100.00
59608;BME280;45426;44.726;10.390;2023-02-10T14:27:11;102566.78;;;8.72;100.00
59608;BME280;45426;44.726;10.390;2023-02-10T14:29:46;102561.94;;;8.85;100.00
59608;BME280;45426;44.726;10.390;2023-02-10T14:32:15;102556.78;;;8.83;100.00